sensor_id;sensor_type;location;lat;lon;timestamp;P1;durP1;ratioP1;P2;durP2;ratioP2
75189;SDS011;69198;44.694;37.790;2024-03-29T00:00:57;11.27;;;1.88;;
75189;SDS011;69198;44.694;37.790;2024-03-29T00:02:00;9.77;;;1.85;;
75189;SDS011;69198;44.694;37.790;2024-03-29T00:03:03;12.18;;;2.50;;
75189;SDS011;69198;44.694;37.790;2024-03-29T00:04:05;10.55;;;1.80;;
75189;SDS011;69198;44.694;37.790;2024-03-29T00:05:06;11.50;;;1.88;;
75189;SDS011;69198;44.694;37.790;2024-03-29T00:06:07;11.25;;;1.80;;
75189;SDS011;69198;44.694;37.790;2024-03-29T00:07:08;8.48;;;1.65;;
75189;SDS011;69198;44.694;37.790;2024-03-29T00:08:10;8.65;;;1.63;;
75189;SDS011;69198;44.694;37.790;2024-03-29T00:09:11;15.50;;;2.08;;
75189;SDS011;69198;44.694;37.790;2024-03-29T00:10:13;11.47;;;2.50;;
75189;SDS011;69198;44.694;37.790;2024-03-29T00:11:14;13.95;;;1.63;;
75189;SDS011;69198;44.694;37.790;2024-03-29T00:12:18;9.45;;;2.30;;
75189;SDS011;69198;44.694;37.790;2024-03-29T00:13:19;7.65;;;1.98;;
75189;SDS011;69198;44.694;37.790;2024-03-29T00:14:20;9.85;;;2.20;;
75189;SDS011;69198;44.694;37.790;2024-03-29T00:15:21;7.68;;;1.60;;
75189;SDS011;69198;44.694;37.790;2024-03-29T00:16:25;9.80;;;2.25;;
75189;SDS011;69198;44.694;37.790;2024-03-29T00:17:26;11.27;;;1.80;;
75189;SDS011;69198;44.694;37.790;2024-03-29T00:18:27;8.03;;;1.43;;
75189;SDS011;69198;44.694;37.790;2024-03-29T00:19:28;7.43;;;1.40;;
75189;SDS011;69198;44.694;37.790;2024-03-29T00:20:29;6.70;;;1.65;;
75189;SDS011;69198;44.694;37.790;2024-03-29T00:21:31;11.35;;;1.88;;
75189;SDS011;69198;44.694;37.790;2024-03-29T00:22:34;12.40;;;1.85;;
75189;SDS011;69198;44.694;37.790;2024-03-29T00:23:35;9.57;;;1.77;;
75189;SDS011;69198;44.694;37.790;2024-03-29T00:24:36;9.32;;;1.70;;
75189;SDS011;69198;44.694;37.790;2024-03-29T00:25:37;7.07;;;1.23;;
75189;SDS011;69198;44.694;37.790;2024-03-29T00:26:38;7.67;;;1.30;;
75189;SDS011;69198;44.694;37.790;2024-03-29T00:27:39;6.43;;;1.13;;
75189;SDS011;69198;44.694;37.790;2024-03-29T00:28:40;9.23;;;1.17;;
75189;SDS011;69198;44.694;37.790;2024-03-29T00:29:41;7.88;;;1.38;;
75189;SDS011;69198;44.694;37.790;2024-03-29T00:30:44;9.48;;;1.33;;
75189;SDS011;69198;44.694;37.790;2024-03-29T00:31:45;7.88;;;1.48;;
75189;SDS011;69198;44.694;37.790;2024-03-29T00:32:46;8.27;;;1.30;;
75189;SDS011;69198;44.694;37.790;2024-03-29T00:33:47;8.82;;;1.40;;
75189;SDS011;69198;44.694;37.790;2024-03-29T00:34:50;7.18;;;1.17;;
75189;SDS011;69198;44.694;37.790;2024-03-29T00:35:52;8.60;;;1.20;;
75189;SDS011;69198;44.694;37.790;2024-03-29T00:36:53;8.68;;;1.35;;
75189;SDS011;69198;44.694;37.790;2024-03-29T00:37:54;14.63;;;1.80;;
75189;SDS011;69198;44.694;37.790;2024-03-29T00:38:55;9.18;;;1.38;;
75189;SDS011;69198;44.694;37.790;2024-03-29T00:39:56;7.57;;;1.65;;
75189;SDS011;69198;44.694;37.790;2024-03-29T00:40:57;9.52;;;1.90;;
75189;SDS011;69198;44.694;37.790;2024-03-29T00:41:58;9.02;;;2.70;;
75189;SDS011;69198;44.694;37.790;2024-03-29T00:43:00;10.65;;;1.90;;
75189;SDS011;69198;44.694;37.790;2024-03-29T00:44:01;9.40;;;2.22;;
75189;SDS011;69198;44.694;37.790;2024-03-29T00:45:03;9.55;;;2.22;;
75189;SDS011;69198;44.694;37.790;2024-03-29T00:46:04;11.48;;;1.90;;
75189;SDS011;69198;44.694;37.790;2024-03-29T00:47:06;9.35;;;2.20;;
75189;SDS011;69198;44.694;37.790;2024-03-29T00:48:07;7.53;;;1.90;;
75189;SDS011;69198;44.694;37.790;2024-03-29T00:49:09;8.75;;;1.90;;
75189;SDS011;69198;44.694;37.790;2024-03-29T00:50:10;10.85;;;2.17;;
75189;SDS011;69198;44.694;37.790;2024-03-29T00:51:11;12.30;;;1.77;;
75189;SDS011;69198;44.694;37.790;2024-03-29T00:52:12;8.45;;;1.92;;
75189;SDS011;69198;44.694;37.790;2024-03-29T00:53:13;8.13;;;1.95;;
75189;SDS011;69198;44.694;37.790;2024-03-29T00:54:14;8.77;;;1.90;;
75189;SDS011;69198;44.694;37.790;2024-03-29T00:55:15;11.05;;;2.10;;
75189;SDS011;69198;44.694;37.790;2024-03-29T00:56:16;8.45;;;1.23;;
75189;SDS011;69198;44.694;37.790;2024-03-29T00:57:17;9.23;;;1.57;;
75189;SDS011;69198;44.694;37.790;2024-03-29T00:58:18;7.90;;;1.58;;
75189;SDS011;69198;44.694;37.790;2024-03-29T00:59:23;14.43;;;1.80;;
75189;SDS011;69198;44.694;37.790;2024-03-29T01:00:24;8.75;;;1.15;;
75189;SDS011;69198;44.694;37.790;2024-03-29T01:01:25;8.43;;;1.45;;
75189;SDS011;69198;44.694;37.790;2024-03-29T01:02:26;6.35;;;1.00;;
75189;SDS011;69198;44.694;37.790;2024-03-29T01:03:27;6.45;;;1.20;;
75189;SDS011;69198;44.694;37.790;2024-03-29T01:04:31;5.50;;;0.93;;
75189;SDS011;69198;44.694;37.790;2024-03-29T01:05:32;4.93;;;0.90;;
75189;SDS011;69198;44.694;37.790;2024-03-29T01:06:33;9.45;;;1.25;;
75189;SDS011;69198;44.694;37.790;2024-03-29T01:07:34;6.00;;;0.70;;
75189;SDS011;69198;44.694;37.790;2024-03-29T01:08:35;8.02;;;1.40;;
75189;SDS011;69198;44.694;37.790;2024-03-29T01:09:36;5.68;;;0.70;;
75189;SDS011;69198;44.694;37.790;2024-03-29T01:10:37;5.32;;;0.98;;
75189;SDS011;69198;44.694;37.790;2024-03-29T01:11:38;4.22;;;0.60;;
75189;SDS011;69198;44.694;37.790;2024-03-29T01:12:40;4.82;;;0.90;;
75189;SDS011;69198;44.694;37.790;2024-03-29T01:13:41;4.13;;;0.70;;
75189;SDS011;69198;44.694;37.790;2024-03-29T01:14:42;7.20;;;0.90;;
75189;SDS011;69198;44.694;37.790;2024-03-29T01:15:43;4.53;;;0.90;;
75189;SDS011;69198;44.694;37.790;2024-03-29T01:16:44;6.45;;;0.75;;
75189;SDS011;69198;44.694;37.790;2024-03-29T01:17:45;9.52;;;1.10;;
75189;SDS011;69198;44.694;37.790;2024-03-29T01:18:46;8.50;;;1.30;;
75189;SDS011;69198;44.694;37.790;2024-03-29T01:19:47;6.68;;;1.27;;
75189;SDS011;69198;44.694;37.790;2024-03-29T01:20:48;7.82;;;1.40;;
75189;SDS011;69198;44.694;37.790;2024-03-29T01:21:49;9.10;;;1.70;;
75189;SDS011;69198;44.694;37.790;2024-03-29T01:22:50;7.95;;;1.90;;
75189;SDS011;69198;44.694;37.790;2024-03-29T01:23:51;11.50;;;1.40;;
75189;SDS011;69198;44.694;37.790;2024-03-29T01:24:52;8.57;;;1.83;;
75189;SDS011;69198;44.694;37.790;2024-03-29T01:25:53;7.13;;;1.55;;
75189;SDS011;69198;44.694;37.790;2024-03-29T01:26:55;6.18;;;1.67;;
75189;SDS011;69198;44.694;37.790;2024-03-29T01:27:56;6.05;;;1.67;;
75189;SDS011;69198;44.694;37.790;2024-03-29T01:28:57;8.23;;;0.98;;
75189;SDS011;69198;44.694;37.790;2024-03-29T01:29:58;9.52;;;0.90;;
75189;SDS011;69198;44.694;37.790;2024-03-29T01:30:59;6.63;;;1.10;;
75189;SDS011;69198;44.694;37.790;2024-03-29T01:32:00;8.40;;;1.90;;
75189;SDS011;69198;44.694;37.790;2024-03-29T01:33:01;6.95;;;1.58;;
75189;SDS011;69198;44.694;37.790;2024-03-29T01:34:02;6.00;;;1.27;;
75189;SDS011;69198;44.694;37.790;2024-03-29T01:35:06;5.43;;;1.10;;
75189;SDS011;69198;44.694;37.790;2024-03-29T01:36:08;6.18;;;1.20;;
75189;SDS011;69198;44.694;37.790;2024-03-29T01:37:08;8.35;;;1.50;;
75189;SDS011;69198;44.694;37.790;2024-03-29T01:38:09;7.53;;;1.40;;
75189;SDS011;69198;44.694;37.790;2024-03-29T01:39:15;8.55;;;1.33;;
75189;SDS011;69198;44.694;37.790;2024-03-29T01:40:19;6.10;;;1.40;;
75189;SDS011;69198;44.694;37.790;2024-03-29T01:41:20;15.02;;;1.60;;
75189;SDS011;69198;44.694;37.790;2024-03-29T01:42:21;10.73;;;1.50;;
75189;SDS011;69198;44.694;37.790;2024-03-29T01:43:22;7.70;;;1.20;;
75189;SDS011;69198;44.694;37.790;2024-03-29T01:44:23;10.27;;;1.02;;
75189;SDS011;69198;44.694;37.790;2024-03-29T01:45:24;5.80;;;1.30;;
75189;SDS011;69198;44.694;37.790;2024-03-29T01:46:25;7.45;;;1.17;;
75189;SDS011;69198;44.694;37.790;2024-03-29T01:47:27;6.93;;;1.08;;
75189;SDS011;69198;44.694;37.790;2024-03-29T01:48:29;8.48;;;1.20;;
75189;SDS011;69198;44.694;37.790;2024-03-29T01:49:30;7.85;;;1.30;;
75189;SDS011;69198;44.694;37.790;2024-03-29T01:50:32;8.40;;;1.70;;
75189;SDS011;69198;44.694;37.790;2024-03-29T01:51:34;11.57;;;1.88;;
75189;SDS011;69198;44.694;37.790;2024-03-29T01:52:40;9.35;;;1.80;;
75189;SDS011;69198;44.694;37.790;2024-03-29T01:53:41;8.70;;;2.10;;
75189;SDS011;69198;44.694;37.790;2024-03-29T01:54:42;12.13;;;2.10;;
75189;SDS011;69198;44.694;37.790;2024-03-29T01:55:44;11.80;;;2.30;;
75189;SDS011;69198;44.694;37.790;2024-03-29T01:56:46;8.55;;;1.80;;
75189;SDS011;69198;44.694;37.790;2024-03-29T01:57:49;9.68;;;2.13;;
75189;SDS011;69198;44.694;37.790;2024-03-29T01:58:55;9.55;;;2.05;;
75189;SDS011;69198;44.694;37.790;2024-03-29T01:59:58;10.52;;;2.38;;
75189;SDS011;69198;44.694;37.790;2024-03-29T02:01:00;8.77;;;1.83;;
75189;SDS011;69198;44.694;37.790;2024-03-29T02:02:01;10.60;;;1.92;;
75189;SDS011;69198;44.694;37.790;2024-03-29T02:03:03;8.50;;;2.22;;
75189;SDS011;69198;44.694;37.790;2024-03-29T02:04:09;8.98;;;2.00;;
75189;SDS011;69198;44.694;37.790;2024-03-29T02:05:10;7.57;;;1.65;;
75189;SDS011;69198;44.694;37.790;2024-03-29T02:06:11;10.20;;;1.98;;
75189;SDS011;69198;44.694;37.790;2024-03-29T02:07:14;11.30;;;2.40;;
75189;SDS011;69198;44.694;37.790;2024-03-29T02:08:15;10.00;;;3.28;;
75189;SDS011;69198;44.694;37.790;2024-03-29T02:09:17;11.48;;;3.20;;
75189;SDS011;69198;44.694;37.790;2024-03-29T02:10:18;15.15;;;3.50;;
75189;SDS011;69198;44.694;37.790;2024-03-29T02:11:19;12.90;;;4.20;;
75189;SDS011;69198;44.694;37.790;2024-03-29T02:12:21;9.57;;;3.22;;
75189;SDS011;69198;44.694;37.790;2024-03-29T02:13:22;9.68;;;2.92;;
75189;SDS011;69198;44.694;37.790;2024-03-29T02:14:24;10.18;;;2.92;;
75189;SDS011;69198;44.694;37.790;2024-03-29T02:15:25;11.52;;;3.33;;
75189;SDS011;69198;44.694;37.790;2024-03-29T02:16:26;8.18;;;2.72;;
75189;SDS011;69198;44.694;37.790;2024-03-29T02:17:28;8.27;;;2.95;;
75189;SDS011;69198;44.694;37.790;2024-03-29T02:18:32;11.32;;;2.88;;
75189;SDS011;69198;44.694;37.790;2024-03-29T02:19:33;11.25;;;2.80;;
75189;SDS011;69198;44.694;37.790;2024-03-29T02:20:34;9.07;;;2.60;;
75189;SDS011;69198;44.694;37.790;2024-03-29T02:21:40;9.35;;;2.60;;
75189;SDS011;69198;44.694;37.790;2024-03-29T02:22:46;11.05;;;2.65;;
75189;SDS011;69198;44.694;37.790;2024-03-29T02:23:57;13.65;;;2.30;;
75189;SDS011;69198;44.694;37.790;2024-03-29T02:25:00;9.70;;;2.13;;
75189;SDS011;69198;44.694;37.790;2024-03-29T02:26:02;8.80;;;1.63;;
75189;SDS011;69198;44.694;37.790;2024-03-29T02:27:06;6.72;;;1.30;;
75189;SDS011;69198;44.694;37.790;2024-03-29T02:28:07;7.50;;;1.50;;
75189;SDS011;69198;44.694;37.790;2024-03-29T02:29:08;9.65;;;1.40;;
75189;SDS011;69198;44.694;37.790;2024-03-29T02:30:13;7.55;;;1.48;;
75189;SDS011;69198;44.694;37.790;2024-03-29T02:31:15;6.37;;;1.20;;
75189;SDS011;69198;44.694;37.790;2024-03-29T02:32:16;8.70;;;1.80;;
75189;SDS011;69198;44.694;37.790;2024-03-29T02:33:17;5.93;;;1.20;;
75189;SDS011;69198;44.694;37.790;2024-03-29T02:34:21;6.43;;;1.30;;
75189;SDS011;69198;44.694;37.790;2024-03-29T02:35:22;7.93;;;1.20;;
75189;SDS011;69198;44.694;37.790;2024-03-29T02:36:23;7.88;;;1.02;;
75189;SDS011;69198;44.694;37.790;2024-03-29T02:37:24;6.00;;;1.23;;
75189;SDS011;69198;44.694;37.790;2024-03-29T02:38:25;5.60;;;1.20;;
75189;SDS011;69198;44.694;37.790;2024-03-29T02:39:26;5.40;;;0.90;;
75189;SDS011;69198;44.694;37.790;2024-03-29T02:40:27;7.73;;;1.10;;
75189;SDS011;69198;44.694;37.790;2024-03-29T02:41:28;6.38;;;0.93;;
75189;SDS011;69198;44.694;37.790;2024-03-29T02:42:30;5.00;;;0.90;;
75189;SDS011;69198;44.694;37.790;2024-03-29T02:43:35;5.95;;;1.15;;
75189;SDS011;69198;44.694;37.790;2024-03-29T02:44:36;4.88;;;0.82;;
75189;SDS011;69198;44.694;37.790;2024-03-29T02:45:37;5.43;;;0.63;;
75189;SDS011;69198;44.694;37.790;2024-03-29T02:46:40;4.50;;;0.63;;
75189;SDS011;69198;44.694;37.790;2024-03-29T02:47:41;4.85;;;0.82;;
75189;SDS011;69198;44.694;37.790;2024-03-29T02:48:43;5.30;;;0.82;;
75189;SDS011;69198;44.694;37.790;2024-03-29T02:49:44;4.63;;;0.90;;
75189;SDS011;69198;44.694;37.790;2024-03-29T02:50:45;10.20;;;0.93;;
75189;SDS011;69198;44.694;37.790;2024-03-29T02:51:46;5.53;;;0.88;;
75189;SDS011;69198;44.694;37.790;2024-03-29T02:52:47;5.30;;;0.88;;
75189;SDS011;69198;44.694;37.790;2024-03-29T02:53:48;5.05;;;1.13;;
75189;SDS011;69198;44.694;37.790;2024-03-29T02:54:49;5.35;;;1.02;;
75189;SDS011;69198;44.694;37.790;2024-03-29T02:55:50;8.30;;;1.13;;
75189;SDS011;69198;44.694;37.790;2024-03-29T02:56:51;6.10;;;1.08;;
75189;SDS011;69198;44.694;37.790;2024-03-29T02:57:52;8.25;;;1.10;;
75189;SDS011;69198;44.694;37.790;2024-03-29T02:58:54;6.43;;;1.02;;
75189;SDS011;69198;44.694;37.790;2024-03-29T02:59:55;7.13;;;0.95;;
75189;SDS011;69198;44.694;37.790;2024-03-29T03:00:56;6.73;;;1.00;;
75189;SDS011;69198;44.694;37.790;2024-03-29T03:02:00;6.68;;;1.02;;
75189;SDS011;69198;44.694;37.790;2024-03-29T03:03:02;5.75;;;0.90;;
75189;SDS011;69198;44.694;37.790;2024-03-29T03:04:03;4.82;;;0.90;;
75189;SDS011;69198;44.694;37.790;2024-03-29T03:05:04;9.18;;;0.80;;
75189;SDS011;69198;44.694;37.790;2024-03-29T03:06:06;6.78;;;0.80;;
75189;SDS011;69198;44.694;37.790;2024-03-29T03:07:08;6.40;;;1.00;;
75189;SDS011;69198;44.694;37.790;2024-03-29T03:08:27;5.30;;;0.82;;
75189;SDS011;69198;44.694;37.790;2024-03-29T03:09:48;5.03;;;0.75;;
75189;SDS011;69198;44.694;37.790;2024-03-29T03:11:07;6.05;;;0.70;;
75189;SDS011;69198;44.694;37.790;2024-03-29T03:12:08;4.67;;;0.80;;
75189;SDS011;69198;44.694;37.790;2024-03-29T03:13:09;11.13;;;0.90;;
75189;SDS011;69198;44.694;37.790;2024-03-29T03:14:11;7.63;;;0.85;;
75189;SDS011;69198;44.694;37.790;2024-03-29T03:15:12;3.33;;;0.40;;
75189;SDS011;69198;44.694;37.790;2024-03-29T03:16:13;8.15;;;0.80;;
75189;SDS011;69198;44.694;37.790;2024-03-29T03:17:14;10.25;;;1.35;;
75189;SDS011;69198;44.694;37.790;2024-03-29T03:18:15;9.75;;;1.17;;
75189;SDS011;69198;44.694;37.790;2024-03-29T03:19:16;6.40;;;0.77;;
75189;SDS011;69198;44.694;37.790;2024-03-29T03:20:17;5.73;;;0.63;;
75189;SDS011;69198;44.694;37.790;2024-03-29T03:21:19;8.10;;;0.43;;
75189;SDS011;69198;44.694;37.790;2024-03-29T03:22:21;7.85;;;0.93;;
75189;SDS011;69198;44.694;37.790;2024-03-29T03:23:22;9.15;;;0.82;;
75189;SDS011;69198;44.694;37.790;2024-03-29T03:24:23;7.15;;;1.08;;
75189;SDS011;69198;44.694;37.790;2024-03-29T03:25:25;12.00;;;2.00;;
75189;SDS011;69198;44.694;37.790;2024-03-29T03:26:27;11.68;;;2.35;;
75189;SDS011;69198;44.694;37.790;2024-03-29T03:27:28;12.93;;;2.35;;
75189;SDS011;69198;44.694;37.790;2024-03-29T03:28:29;6.10;;;1.38;;
75189;SDS011;69198;44.694;37.790;2024-03-29T03:29:30;10.77;;;2.43;;
75189;SDS011;69198;44.694;37.790;2024-03-29T03:30:31;8.40;;;1.60;;
75189;SDS011;69198;44.694;37.790;2024-03-29T03:31:34;13.05;;;2.00;;
75189;SDS011;69198;44.694;37.790;2024-03-29T03:32:35;11.55;;;2.70;;
75189;SDS011;69198;44.694;37.790;2024-03-29T03:33:36;9.77;;;2.60;;
75189;SDS011;69198;44.694;37.790;2024-03-29T03:34:37;16.17;;;2.60;;
75189;SDS011;69198;44.694;37.790;2024-03-29T03:35:38;9.88;;;2.30;;
75189;SDS011;69198;44.694;37.790;2024-03-29T03:36:39;12.20;;;2.77;;
75189;SDS011;69198;44.694;37.790;2024-03-29T03:37:40;10.40;;;3.00;;
75189;SDS011;69198;44.694;37.790;2024-03-29T03:38:44;12.35;;;3.05;;
75189;SDS011;69198;44.694;37.790;2024-03-29T03:39:45;12.57;;;2.20;;
75189;SDS011;69198;44.694;37.790;2024-03-29T03:40:46;9.77;;;2.92;;
75189;SDS011;69198;44.694;37.790;2024-03-29T03:41:47;14.38;;;3.45;;
75189;SDS011;69198;44.694;37.790;2024-03-29T03:42:48;17.02;;;2.78;;
75189;SDS011;69198;44.694;37.790;2024-03-29T03:43:50;11.52;;;2.70;;
75189;SDS011;69198;44.694;37.790;2024-03-29T03:44:51;11.77;;;3.00;;
75189;SDS011;69198;44.694;37.790;2024-03-29T03:45:52;9.68;;;2.30;;
75189;SDS011;69198;44.694;37.790;2024-03-29T03:46:53;9.98;;;2.42;;
75189;SDS011;69198;44.694;37.790;2024-03-29T03:47:55;14.30;;;2.38;;
75189;SDS011;69198;44.694;37.790;2024-03-29T03:48:56;10.32;;;1.80;;
75189;SDS011;69198;44.694;37.790;2024-03-29T03:49:58;8.55;;;2.22;;
75189;SDS011;69198;44.694;37.790;2024-03-29T03:50:59;11.40;;;2.60;;
75189;SDS011;69198;44.694;37.790;2024-03-29T03:52:00;9.32;;;2.30;;
75189;SDS011;69198;44.694;37.790;2024-03-29T03:53:01;10.52;;;2.50;;
75189;SDS011;69198;44.694;37.790;2024-03-29T03:54:02;8.25;;;2.25;;
75189;SDS011;69198;44.694;37.790;2024-03-29T03:55:03;9.83;;;2.03;;
75189;SDS011;69198;44.694;37.790;2024-03-29T03:56:04;9.55;;;1.83;;
75189;SDS011;69198;44.694;37.790;2024-03-29T03:57:06;8.60;;;1.95;;
75189;SDS011;69198;44.694;37.790;2024-03-29T03:58:07;11.25;;;2.00;;
75189;SDS011;69198;44.694;37.790;2024-03-29T03:59:11;11.18;;;1.95;;
75189;SDS011;69198;44.694;37.790;2024-03-29T04:00:14;12.80;;;2.03;;
75189;SDS011;69198;44.694;37.790;2024-03-29T04:01:16;9.18;;;2.00;;
75189;SDS011;69198;44.694;37.790;2024-03-29T04:02:17;9.73;;;1.85;;
75189;SDS011;69198;44.694;37.790;2024-03-29T04:03:18;9.98;;;1.80;;
75189;SDS011;69198;44.694;37.790;2024-03-29T04:04:19;9.30;;;1.67;;
75189;SDS011;69198;44.694;37.790;2024-03-29T04:05:21;12.27;;;1.80;;
75189;SDS011;69198;44.694;37.790;2024-03-29T04:06:22;8.88;;;1.65;;
75189;SDS011;69198;44.694;37.790;2024-03-29T04:07:26;8.38;;;1.85;;
75189;SDS011;69198;44.694;37.790;2024-03-29T04:08:27;8.90;;;1.60;;
75189;SDS011;69198;44.694;37.790;2024-03-29T04:09:29;9.93;;;1.92;;
75189;SDS011;69198;44.694;37.790;2024-03-29T04:10:29;8.90;;;1.88;;
75189;SDS011;69198;44.694;37.790;2024-03-29T04:11:31;7.35;;;1.40;;
75189;SDS011;69198;44.694;37.790;2024-03-29T04:12:33;9.07;;;1.45;;
75189;SDS011;69198;44.694;37.790;2024-03-29T04:13:34;10.97;;;2.33;;
75189;SDS011;69198;44.694;37.790;2024-03-29T04:14:35;11.82;;;2.15;;
75189;SDS011;69198;44.694;37.790;2024-03-29T04:15:36;6.10;;;1.50;;
75189;SDS011;69198;44.694;37.790;2024-03-29T04:16:37;10.57;;;1.65;;
75189;SDS011;69198;44.694;37.790;2024-03-29T04:17:38;9.13;;;1.58;;
75189;SDS011;69198;44.694;37.790;2024-03-29T04:18:39;7.55;;;1.50;;
75189;SDS011;69198;44.694;37.790;2024-03-29T04:19:40;7.20;;;1.38;;
75189;SDS011;69198;44.694;37.790;2024-03-29T04:20:41;9.82;;;1.42;;
75189;SDS011;69198;44.694;37.790;2024-03-29T04:21:42;6.30;;;1.43;;
75189;SDS011;69198;44.694;37.790;2024-03-29T04:22:43;7.75;;;1.75;;
75189;SDS011;69198;44.694;37.790;2024-03-29T04:23:45;7.38;;;1.40;;
75189;SDS011;69198;44.694;37.790;2024-03-29T04:24:46;6.72;;;1.60;;
75189;SDS011;69198;44.694;37.790;2024-03-29T04:25:54;7.72;;;1.20;;
75189;SDS011;69198;44.694;37.790;2024-03-29T04:26:56;5.93;;;1.30;;
75189;SDS011;69198;44.694;37.790;2024-03-29T04:27:58;6.50;;;1.17;;
75189;SDS011;69198;44.694;37.790;2024-03-29T04:28:59;7.10;;;1.35;;
75189;SDS011;69198;44.694;37.790;2024-03-29T04:30:03;11.48;;;1.60;;
75189;SDS011;69198;44.694;37.790;2024-03-29T04:31:04;8.87;;;2.23;;
75189;SDS011;69198;44.694;37.790;2024-03-29T04:32:05;10.65;;;2.30;;
75189;SDS011;69198;44.694;37.790;2024-03-29T04:33:07;14.07;;;2.33;;
75189;SDS011;69198;44.694;37.790;2024-03-29T04:34:09;10.85;;;1.85;;
75189;SDS011;69198;44.694;37.790;2024-03-29T04:35:10;12.27;;;2.10;;
75189;SDS011;69198;44.694;37.790;2024-03-29T04:36:11;9.75;;;1.98;;
75189;SDS011;69198;44.694;37.790;2024-03-29T04:37:12;13.70;;;2.13;;
75189;SDS011;69198;44.694;37.790;2024-03-29T04:38:13;10.63;;;2.10;;
75189;SDS011;69198;44.694;37.790;2024-03-29T04:39:14;11.68;;;1.75;;
75189;SDS011;69198;44.694;37.790;2024-03-29T04:40:15;9.73;;;1.77;;
75189;SDS011;69198;44.694;37.790;2024-03-29T04:41:16;12.88;;;2.05;;
75189;SDS011;69198;44.694;37.790;2024-03-29T04:42:17;10.00;;;2.20;;
75189;SDS011;69198;44.694;37.790;2024-03-29T04:43:18;13.85;;;2.55;;
75189;SDS011;69198;44.694;37.790;2024-03-29T04:44:25;12.80;;;2.25;;
75189;SDS011;69198;44.694;37.790;2024-03-29T04:45:27;11.63;;;2.20;;
75189;SDS011;69198;44.694;37.790;2024-03-29T04:46:31;9.93;;;2.15;;
75189;SDS011;69198;44.694;37.790;2024-03-29T04:47:32;14.85;;;3.42;;
75189;SDS011;69198;44.694;37.790;2024-03-29T04:48:33;18.70;;;3.20;;
75189;SDS011;69198;44.694;37.790;2024-03-29T04:49:34;16.80;;;3.23;;
75189;SDS011;69198;44.694;37.790;2024-03-29T04:50:37;14.80;;;2.45;;
75189;SDS011;69198;44.694;37.790;2024-03-29T04:51:38;12.63;;;2.78;;
75189;SDS011;69198;44.694;37.790;2024-03-29T04:52:39;12.45;;;2.70;;
75189;SDS011;69198;44.694;37.790;2024-03-29T04:53:40;14.88;;;2.63;;
75189;SDS011;69198;44.694;37.790;2024-03-29T04:54:41;11.80;;;2.28;;
75189;SDS011;69198;44.694;37.790;2024-03-29T04:55:44;12.48;;;2.53;;
75189;SDS011;69198;44.694;37.790;2024-03-29T04:56:48;14.25;;;2.22;;
75189;SDS011;69198;44.694;37.790;2024-03-29T04:57:50;16.08;;;2.40;;
75189;SDS011;69198;44.694;37.790;2024-03-29T04:58:51;10.67;;;1.97;;
75189;SDS011;69198;44.694;37.790;2024-03-29T04:59:52;12.98;;;2.63;;
75189;SDS011;69198;44.694;37.790;2024-03-29T05:00:54;12.68;;;2.35;;
75189;SDS011;69198;44.694;37.790;2024-03-29T05:01:55;10.20;;;2.00;;
75189;SDS011;69198;44.694;37.790;2024-03-29T05:02:57;16.65;;;2.40;;
75189;SDS011;69198;44.694;37.790;2024-03-29T05:03:58;9.40;;;2.22;;
75189;SDS011;69198;44.694;37.790;2024-03-29T05:04:59;10.82;;;2.30;;
75189;SDS011;69198;44.694;37.790;2024-03-29T05:06:00;11.10;;;2.22;;
75189;SDS011;69198;44.694;37.790;2024-03-29T05:07:01;14.35;;;2.85;;
75189;SDS011;69198;44.694;37.790;2024-03-29T05:08:02;11.17;;;2.30;;
75189;SDS011;69198;44.694;37.790;2024-03-29T05:09:04;11.80;;;2.40;;
75189;SDS011;69198;44.694;37.790;2024-03-29T05:10:05;9.48;;;1.83;;
75189;SDS011;69198;44.694;37.790;2024-03-29T05:11:10;7.03;;;1.20;;
75189;SDS011;69198;44.694;37.790;2024-03-29T05:12:14;7.20;;;1.65;;
75189;SDS011;69198;44.694;37.790;2024-03-29T05:13:15;9.95;;;2.20;;
75189;SDS011;69198;44.694;37.790;2024-03-29T05:14:17;12.20;;;1.90;;
75189;SDS011;69198;44.694;37.790;2024-03-29T05:15:22;13.00;;;2.40;;
75189;SDS011;69198;44.694;37.790;2024-03-29T05:16:23;14.43;;;3.33;;
75189;SDS011;69198;44.694;37.790;2024-03-29T05:17:27;13.95;;;2.30;;
75189;SDS011;69198;44.694;37.790;2024-03-29T05:18:29;13.30;;;2.43;;
75189;SDS011;69198;44.694;37.790;2024-03-29T05:19:30;18.10;;;2.65;;
75189;SDS011;69198;44.694;37.790;2024-03-29T05:20:31;16.45;;;2.72;;
75189;SDS011;69198;44.694;37.790;2024-03-29T05:21:32;15.13;;;2.55;;
75189;SDS011;69198;44.694;37.790;2024-03-29T05:22:33;9.57;;;2.42;;
75189;SDS011;69198;44.694;37.790;2024-03-29T05:23:35;16.15;;;2.58;;
75189;SDS011;69198;44.694;37.790;2024-03-29T05:24:36;10.20;;;2.78;;
75189;SDS011;69198;44.694;37.790;2024-03-29T05:25:37;12.27;;;2.35;;
75189;SDS011;69198;44.694;37.790;2024-03-29T05:26:38;14.47;;;2.53;;
75189;SDS011;69198;44.694;37.790;2024-03-29T05:27:39;16.98;;;3.17;;
75189;SDS011;69198;44.694;37.790;2024-03-29T05:28:40;13.75;;;3.00;;
75189;SDS011;69198;44.694;37.790;2024-03-29T05:29:41;13.75;;;2.47;;
75189;SDS011;69198;44.694;37.790;2024-03-29T05:30:43;10.20;;;2.13;;
75189;SDS011;69198;44.694;37.790;2024-03-29T05:31:44;13.13;;;2.38;;
75189;SDS011;69198;44.694;37.790;2024-03-29T05:32:45;17.48;;;3.17;;
75189;SDS011;69198;44.694;37.790;2024-03-29T05:33:46;13.10;;;2.45;;
75189;SDS011;69198;44.694;37.790;2024-03-29T05:34:47;12.43;;;2.30;;
75189;SDS011;69198;44.694;37.790;2024-03-29T05:35:48;13.83;;;2.47;;
75189;SDS011;69198;44.694;37.790;2024-03-29T05:36:49;14.70;;;2.40;;
75189;SDS011;69198;44.694;37.790;2024-03-29T05:37:50;12.07;;;2.85;;
75189;SDS011;69198;44.694;37.790;2024-03-29T05:38:53;12.77;;;2.13;;
75189;SDS011;69198;44.694;37.790;2024-03-29T05:39:55;11.18;;;2.35;;
75189;SDS011;69198;44.694;37.790;2024-03-29T05:41:04;19.27;;;3.08;;
75189;SDS011;69198;44.694;37.790;2024-03-29T05:42:06;16.95;;;2.50;;
75189;SDS011;69198;44.694;37.790;2024-03-29T05:43:07;13.55;;;3.05;;
75189;SDS011;69198;44.694;37.790;2024-03-29T05:44:08;15.30;;;3.60;;
75189;SDS011;69198;44.694;37.790;2024-03-29T05:45:22;14.40;;;3.80;;
75189;SDS011;69198;44.694;37.790;2024-03-29T05:46:27;18.33;;;3.78;;
75189;SDS011;69198;44.694;37.790;2024-03-29T05:47:28;16.17;;;3.75;;
75189;SDS011;69198;44.694;37.790;2024-03-29T05:48:29;13.30;;;3.70;;
75189;SDS011;69198;44.694;37.790;2024-03-29T05:49:30;17.38;;;3.63;;
75189;SDS011;69198;44.694;37.790;2024-03-29T05:50:32;13.10;;;3.03;;
75189;SDS011;69198;44.694;37.790;2024-03-29T05:51:34;15.07;;;3.42;;
75189;SDS011;69198;44.694;37.790;2024-03-29T05:52:35;12.55;;;2.88;;
75189;SDS011;69198;44.694;37.790;2024-03-29T05:53:36;14.20;;;2.88;;
75189;SDS011;69198;44.694;37.790;2024-03-29T05:54:37;12.87;;;3.20;;
75189;SDS011;69198;44.694;37.790;2024-03-29T05:55:38;13.07;;;3.17;;
75189;SDS011;69198;44.694;37.790;2024-03-29T05:56:39;13.65;;;3.53;;
75189;SDS011;69198;44.694;37.790;2024-03-29T05:57:40;12.68;;;3.15;;
75189;SDS011;69198;44.694;37.790;2024-03-29T05:58:41;15.85;;;3.40;;
75189;SDS011;69198;44.694;37.790;2024-03-29T05:59:43;15.20;;;3.00;;
75189;SDS011;69198;44.694;37.790;2024-03-29T06:00:44;12.23;;;2.83;;
75189;SDS011;69198;44.694;37.790;2024-03-29T06:01:45;13.82;;;3.00;;
75189;SDS011;69198;44.694;37.790;2024-03-29T06:02:47;15.30;;;2.85;;
75189;SDS011;69198;44.694;37.790;2024-03-29T06:03:49;15.75;;;3.13;;
75189;SDS011;69198;44.694;37.790;2024-03-29T06:04:56;16.53;;;3.40;;